createdAt,value
2022-10-03T00:01:56.074Z,15.61
2022-10-03T00:04:33.905Z,15.59
2022-10-03T00:07:07.620Z,15.61
2022-10-03T00:09:47.900Z,15.60
2022-10-03T00:12:20.046Z,15.43
2022-10-03T00:14:54.837Z,15.70
2022-10-03T00:17:24.998Z,15.66
2022-10-03T00:19:56.900Z,15.67
2022-10-03T00:22:32.862Z,15.65
2022-10-03T00:25:13.924Z,15.63
2022-10-03T00:27:45.080Z,15.57
2022-10-03T00:30:18.393Z,15.59
2022-10-03T00:33:07.024Z,15.59
2022-10-03T00:35:56.262Z,15.57
2022-10-03T00:38:54.229Z,15.53
2022-10-03T00:41:29.168Z,15.52
2022-10-03T00:44:14.094Z,15.53
2022-10-03T00:46:53.933Z,15.47
2022-10-03T00:49:48.763Z,15.58
2022-10-03T00:52:27.945Z,15.55
2022-10-03T00:55:04.359Z,15.52
2022-10-03T00:57:43.139Z,15.45
2022-10-03T01:00:19.352Z,15.50
2022-10-03T01:03:13.144Z,15.50
2022-10-03T01:05:49.348Z,15.60
2022-10-03T01:08:32.247Z,15.61
2022-10-03T01:11:04.843Z,15.59
2022-10-03T01:13:38.008Z,15.67
2022-10-03T01:16:11.433Z,15.68
2022-10-03T01:18:45.666Z,15.71
2022-10-03T01:21:17.333Z,15.71
2022-10-03T01:24:17.778Z,15.73
2022-10-03T01:26:58.516Z,15.72
2022-10-03T01:29:51.034Z,15.68
2022-10-03T01:32:20.954Z,15.66
2022-10-03T01:34:52.683Z,15.67
2022-10-03T01:37:24.260Z,15.67
2022-10-03T01:39:54.446Z,15.68
2022-10-03T01:42:33.303Z,15.70
2022-10-03T01:45:12.959Z,15.73
2022-10-03T01:47:49.527Z,15.77
2022-10-03T01:50:21.801Z,15.80
2022-10-03T01:52:53.329Z,15.82
2022-10-03T01:55:23.367Z,15.64
2022-10-03T01:57:56.081Z,15.75
2022-10-03T02:00:26.725Z,15.72
2022-10-03T02:03:00.522Z,15.77
2022-10-03T02:05:36.396Z,15.74
2022-10-03T02:08:06.683Z,15.80
2022-10-03T02:10:40.644Z,15.87
2022-10-03T02:13:12.448Z,15.86
2022-10-03T02:15:54.617Z,15.95
2022-10-03T02:18:26.782Z,15.95
2022-10-03T02:20:58.610Z,15.83
2022-10-03T02:23:38.691Z,16.03
2022-10-03T02:26:20.591Z,16.06
2022-10-03T02:29:00.709Z,16.02
2022-10-03T02:31:47.117Z,16.05
2022-10-03T02:34:53.214Z,16.01
2022-10-03T02:37:43.302Z,15.93
2022-10-03T02:40:43.780Z,15.91
2022-10-03T02:43:41.622Z,15.75
2022-10-03T02:46:49.043Z,15.77
2022-10-03T02:49:47.991Z,15.67
2022-10-03T02:52:52.712Z,15.77
2022-10-03T02:55:45.670Z,15.76
2022-10-03T02:58:39.466Z,15.77
2022-10-03T03:01:28.508Z,15.69
2022-10-03T03:04:19.376Z,15.64
2022-10-03T03:07:03.514Z,15.76
2022-10-03T03:09:48.279Z,15.81
2022-10-03T03:12:50.679Z,15.85
2022-10-03T03:16:05.984Z,15.89
2022-10-03T03:18:36.137Z,15.91
2022-10-03T03:21:14.705Z,15.95
2022-10-03T03:23:59.085Z,15.96
2022-10-03T03:26:48.330Z,16.05
2022-10-03T03:29:21.584Z,15.95
2022-10-03T03:31:54.639Z,15.93
2022-10-03T03:34:25.792Z,15.74
2022-10-03T03:36:56.941Z,15.90
2022-10-03T03:39:37.523Z,15.96
2022-10-03T03:42:18.723Z,15.98
2022-10-03T03:45:04.918Z,15.96
2022-10-03T03:47:43.938Z,15.89
2022-10-03T03:50:39.751Z,15.88
2022-10-03T03:53:38.565Z,15.83
2022-10-03T03:56:20.258Z,15.66
2022-10-03T03:58:51.406Z,15.66
2022-10-03T04:01:35.927Z,15.67
2022-10-03T04:04:12.358Z,15.65
2022-10-03T04:06:49.343Z,15.66
2022-10-03T04:09:43.483Z,15.61
2022-10-03T04:12:15.862Z,15.58
2022-10-03T04:15:02.745Z,15.58
2022-10-03T04:18:06.305Z,15.47
2022-10-03T04:21:18.137Z,15.53
2022-10-03T04:23:59.957Z,15.60
2022-10-03T04:26:43.194Z,15.58
2022-10-03T04:29:48.136Z,15.70
2022-10-03T04:32:27.460Z,15.74
2022-10-03T04:35:08.045Z,15.75
2022-10-03T04:37:40.832Z,15.62
2022-10-03T04:40:19.104Z,15.69
2022-10-03T04:42:51.581Z,15.77
2022-10-03T04:45:29.315Z,15.94
2022-10-03T04:48:00.719Z,15.93
2022-10-03T04:50:33.345Z,15.95
2022-10-03T04:53:12.404Z,15.93
2022-10-03T04:55:42.676Z,16.00
2022-10-03T04:58:21.065Z,16.01
2022-10-03T05:00:52.963Z,16.00
2022-10-03T05:03:24.940Z,15.84
2022-10-03T05:05:56.164Z,16.00
2022-10-03T05:08:33.009Z,15.99
2022-10-03T05:11:19.749Z,16.05
2022-10-03T05:13:59.183Z,16.05
2022-10-03T05:16:33.458Z,16.15
2022-10-03T05:19:10.499Z,16.24
2022-10-03T05:21:41.217Z,16.27
2022-10-03T05:24:16.495Z,16.32
2022-10-03T05:26:47.683Z,16.34
2022-10-03T05:29:22.168Z,16.35
2022-10-03T05:31:53.777Z,16.46
2022-10-03T05:34:29.212Z,16.58
2022-10-03T05:37:17.668Z,16.65
2022-10-03T05:39:47.088Z,16.73
2022-10-03T05:42:35.519Z,16.68
2022-10-03T05:45:06.920Z,16.70
2022-10-03T05:47:46.486Z,16.66
2022-10-03T05:50:33.522Z,16.55
2022-10-03T05:53:07.351Z,16.62
2022-10-03T05:55:44.962Z,16.53
2022-10-03T05:58:49.130Z,16.63
2022-10-03T06:01:47.791Z,16.60
2022-10-03T06:04:36.017Z,16.43
2022-10-03T06:07:16.059Z,16.61
2022-10-03T06:10:09.130Z,16.60
2022-10-03T06:12:40.284Z,16.59
2022-10-03T06:15:39.366Z,16.62
2022-10-03T06:18:23.712Z,16.46
2022-10-03T06:21:09.811Z,16.65
2022-10-03T06:24:31.784Z,16.72
2022-10-03T06:27:48.436Z,16.73
2022-10-03T06:30:22.009Z,16.66
2022-10-03T06:33:25.588Z,16.73
2022-10-03T06:36:12.956Z,16.73
2022-10-03T06:39:14.388Z,16.75
2022-10-03T06:42:20.460Z,16.76
2022-10-03T06:45:13.555Z,16.78
2022-10-03T06:47:51.878Z,16.83
2022-10-03T06:50:46.215Z,16.89
2022-10-03T06:53:32.681Z,16.82
2022-10-03T06:56:39.230Z,16.94
2022-10-03T06:59:42.746Z,16.96
2022-10-03T07:02:56.657Z,17.00
2022-10-03T07:06:01.768Z,17.02
2022-10-03T07:08:53.491Z,17.02
2022-10-03T07:11:43.084Z,17.10
2022-10-03T07:14:43.748Z,17.03
2022-10-03T07:17:35.143Z,17.21
2022-10-03T07:20:19.996Z,17.25
2022-10-03T07:23:21.607Z,17.29
2022-10-03T07:26:16.166Z,17.29
2022-10-03T07:29:15.767Z,17.37
2022-10-03T07:31:51.161Z,17.40
2022-10-03T07:34:54.549Z,17.44
2022-10-03T07:37:48.352Z,17.48
2022-10-03T07:40:43.436Z,17.55
2022-10-03T07:43:35.968Z,17.43
2022-10-03T07:46:33.038Z,17.67
2022-10-03T07:49:18.394Z,17.75
2022-10-03T07:51:53.446Z,17.75
2022-10-03T07:54:43.831Z,17.92
2022-10-03T07:57:45.847Z,17.97
2022-10-03T08:00:24.360Z,18.08
2022-10-03T08:03:32.495Z,18.17
2022-10-03T08:06:19.391Z,18.17
2022-10-03T08:09:22.747Z,18.30
2022-10-03T08:12:12.505Z,18.33
2022-10-03T08:14:48.544Z,18.38
2022-10-03T08:18:01.578Z,18.44
2022-10-03T08:20:37.201Z,18.41
2022-10-03T08:23:16.975Z,18.48
2022-10-03T08:25:53.520Z,18.52
2022-10-03T08:28:36.211Z,18.46
2022-10-03T08:31:36.612Z,18.65
2022-10-03T08:34:24.718Z,18.75
2022-10-03T08:37:20.447Z,18.91
2022-10-03T08:40:00.480Z,19.03
2022-10-03T08:42:55.560Z,19.18
2022-10-03T08:45:47.220Z,19.28
2022-10-03T08:48:51.055Z,19.34
2022-10-03T08:51:40.629Z,19.54
2022-10-03T08:54:39.163Z,19.71
2022-10-03T08:57:33.806Z,19.78
2022-10-03T09:00:25.760Z,19.94
2022-10-03T09:03:43.316Z,20.05
2022-10-03T09:10:26.107Z,20.24
2022-10-03T09:13:20.672Z,20.34
2022-10-03T09:16:25.159Z,20.44
2022-10-03T09:19:07.926Z,20.58
2022-10-03T09:21:49.000Z,20.70
2022-10-03T09:24:45.785Z,20.86
2022-10-03T09:27:32.005Z,21.13
2022-10-03T09:30:06.667Z,21.21
2022-10-03T09:33:17.535Z,21.43
2022-10-03T09:35:58.910Z,21.56
2022-10-03T09:39:00.308Z,21.60
2022-10-03T09:41:41.223Z,21.59
2022-10-03T09:44:19.676Z,21.81
2022-10-03T09:47:28.047Z,21.92
2022-10-03T09:50:33.038Z,22.07
2022-10-03T09:53:18.789Z,22.22
2022-10-03T09:56:01.723Z,22.24
2022-10-03T09:58:40.531Z,22.42
2022-10-03T10:01:23.875Z,22.51
2022-10-03T10:04:53.064Z,22.54
2022-10-03T10:07:41.905Z,22.68
2022-10-03T10:10:39.929Z,22.74
2022-10-03T10:13:44.237Z,22.75
2022-10-03T10:17:02.008Z,22.73
2022-10-03T10:19:45.299Z,22.81
2022-10-03T10:22:29.639Z,22.80
2022-10-03T10:25:20.225Z,22.83
2022-10-03T10:31:14.843Z,23.12
2022-10-03T10:34:22.544Z,23.17
2022-10-03T10:37:21.969Z,23.27
2022-10-03T10:40:22.836Z,23.33
2022-10-03T10:43:33.966Z,23.40
2022-10-03T10:46:47.657Z,23.54
2022-10-03T10:49:47.347Z,23.64
2022-10-03T10:52:57.215Z,23.78
2022-10-03T10:55:55.292Z,23.77
2022-10-03T10:59:03.531Z,23.80
2022-10-03T11:02:15.931Z,23.84
2022-10-03T11:05:23.827Z,23.78
2022-10-03T11:08:28.546Z,23.84
2022-10-03T11:11:28.255Z,23.94
2022-10-03T11:14:33.620Z,24.03
2022-10-03T11:17:28.198Z,23.92
2022-10-03T11:20:17.044Z,23.94
2022-10-03T11:23:45.032Z,24.02
2022-10-03T11:26:51.957Z,24.11
2022-10-03T11:29:50.536Z,24.25
2022-10-03T11:33:05.682Z,24.24
2022-10-03T11:35:54.046Z,24.26
2022-10-03T11:38:23.694Z,24.29
2022-10-03T11:40:59.027Z,24.44
2022-10-03T11:44:01.850Z,24.44
2022-10-03T11:46:42.363Z,24.52
2022-10-03T11:49:16.236Z,24.63
2022-10-03T11:51:48.272Z,24.62
2022-10-03T11:54:32.737Z,24.50
2022-10-03T11:57:02.948Z,24.39
2022-10-03T11:59:44.800Z,24.45
2022-10-03T12:02:17.789Z,24.37
2022-10-03T12:04:50.807Z,24.37
2022-10-03T12:07:42.200Z,24.35
2022-10-03T12:10:13.668Z,24.33
2022-10-03T12:12:43.729Z,24.34
2022-10-03T12:15:20.368Z,24.69
2022-10-03T12:17:51.774Z,24.89
2022-10-03T12:20:25.577Z,25.02
2022-10-03T12:22:56.238Z,25.15
2022-10-03T12:25:24.954Z,25.34
2022-10-03T12:28:00.591Z,25.42
2022-10-03T12:30:29.382Z,25.42
2022-10-03T12:33:09.938Z,25.29
2022-10-03T12:35:42.110Z,25.24
2022-10-03T12:38:23.937Z,25.21
2022-10-03T12:40:55.403Z,25.28
2022-10-03T12:43:34.362Z,25.24
2022-10-03T12:46:06.370Z,25.24
2022-10-03T12:48:48.004Z,25.68
2022-10-03T12:51:22.627Z,25.54
2022-10-03T12:53:56.657Z,25.77
2022-10-03T12:56:28.354Z,25.98
2022-10-03T12:59:03.428Z,26.05
2022-10-03T13:01:40.522Z,26.04
2022-10-03T13:04:18.953Z,25.96
2022-10-03T13:07:09.471Z,25.96
2022-10-03T13:09:51.355Z,26.15
2022-10-03T13:12:26.926Z,25.99
2022-10-03T13:15:46.281Z,26.55
2022-10-03T13:18:23.719Z,27.14
2022-10-03T13:20:57.017Z,27.47
2022-10-03T13:23:28.304Z,27.89
2022-10-03T13:25:59.450Z,28.10
2022-10-03T13:28:31.145Z,28.28
2022-10-03T13:31:03.459Z,28.61
2022-10-03T13:33:33.226Z,28.48
2022-10-03T13:36:03.791Z,28.44
2022-10-03T13:38:52.848Z,28.59
2022-10-03T13:41:27.814Z,28.41
2022-10-03T13:43:59.609Z,27.93
2022-10-03T13:46:31.263Z,27.53
2022-10-03T13:49:02.112Z,27.20
2022-10-03T13:51:36.711Z,27.26
2022-10-03T13:54:07.614Z,27.43
2022-10-03T13:56:42.374Z,27.29
2022-10-03T13:59:28.235Z,27.55
2022-10-03T14:02:02.138Z,27.54
2022-10-03T14:05:04.647Z,27.73
2022-10-03T14:07:40.268Z,27.87
2022-10-03T14:10:20.431Z,28.08
2022-10-03T14:13:05.146Z,28.28
2022-10-03T14:15:37.042Z,28.34
2022-10-03T14:18:12.247Z,28.39
2022-10-03T14:20:42.525Z,28.33
2022-10-03T14:23:20.127Z,28.37
2022-10-03T14:25:52.901Z,28.52
2022-10-03T14:28:23.151Z,28.55
2022-10-03T14:31:06.619Z,28.80
2022-10-03T14:34:07.856Z,28.79
2022-10-03T14:36:43.018Z,28.63
2022-10-03T14:43:39.353Z,28.05
2022-10-03T14:46:07.574Z,28.07
2022-10-03T14:48:38.006Z,28.31
2022-10-03T14:51:11.725Z,28.34
2022-10-03T14:53:40.159Z,28.03
2022-10-03T14:56:09.948Z,27.76
2022-10-03T14:58:45.328Z,27.49
2022-10-03T15:01:15.535Z,27.30
2022-10-03T15:03:45.018Z,27.04
2022-10-03T15:06:21.684Z,26.85
2022-10-03T15:08:51.562Z,26.70
2022-10-03T15:11:26.854Z,26.53
2022-10-03T15:13:58.451Z,26.42
2022-10-03T15:16:26.987Z,26.32
2022-10-03T15:18:58.318Z,26.41
2022-10-03T15:21:26.656Z,26.34
2022-10-03T15:23:57.977Z,26.20
2022-10-03T15:26:26.745Z,25.99
2022-10-03T15:28:59.417Z,25.91
2022-10-03T15:31:33.802Z,25.92
2022-10-03T15:34:02.445Z,25.90
2022-10-03T15:36:31.991Z,26.31
2022-10-03T15:39:01.701Z,26.50
2022-10-03T15:41:30.612Z,26.52
2022-10-03T15:44:05.405Z,26.49
2022-10-03T15:46:34.980Z,26.48
2022-10-03T15:49:06.758Z,26.52
2022-10-03T15:51:35.131Z,26.39
2022-10-03T15:54:03.621Z,26.09
2022-10-03T15:56:34.154Z,25.92
2022-10-03T15:59:07.019Z,25.84
2022-10-03T16:01:36.262Z,25.71
2022-10-03T16:04:05.364Z,25.63
2022-10-03T16:06:39.342Z,25.54
2022-10-03T16:09:09.977Z,25.70
2022-10-03T16:11:41.432Z,26.24
2022-10-03T16:14:19.065Z,26.87
2022-10-03T16:16:49.335Z,26.78
2022-10-03T16:19:24.590Z,27.19
2022-10-03T16:21:55.529Z,27.56
2022-10-03T16:24:33.026Z,28.06
2022-10-03T16:27:07.238Z,28.14
2022-10-03T16:29:38.029Z,27.88
2022-10-03T16:32:07.458Z,27.41
2022-10-03T16:34:36.056Z,26.90
2022-10-03T16:37:04.263Z,26.41
2022-10-03T16:39:34.990Z,25.67
2022-10-03T16:42:09.570Z,25.23
2022-10-03T16:44:41.313Z,24.82
2022-10-03T16:47:09.430Z,24.33
2022-10-03T16:50:03.386Z,24.00
2022-10-03T16:52:33.371Z,23.78
2022-10-03T16:55:04.265Z,23.51
2022-10-03T16:57:37.341Z,23.48
2022-10-03T17:00:08.354Z,23.35
2022-10-03T17:02:37.059Z,23.25
2022-10-03T17:05:06.380Z,23.21
2022-10-03T17:07:41.519Z,23.14
2022-10-03T17:10:30.141Z,23.10
2022-10-03T17:13:03.626Z,22.90
2022-10-03T17:15:34.559Z,22.81
2022-10-03T17:18:11.105Z,22.81
2022-10-03T17:20:42.085Z,22.72
2022-10-03T17:23:12.692Z,22.73
2022-10-03T17:25:45.433Z,22.68
2022-10-03T17:28:15.519Z,22.63
2022-10-03T17:30:47.275Z,22.60
2022-10-03T17:33:17.337Z,22.63
2022-10-03T17:35:48.709Z,22.58
2022-10-03T17:38:48.447Z,22.48
2022-10-03T17:41:17.251Z,22.33
2022-10-03T17:43:46.831Z,22.42
2022-10-03T17:48:50.454Z,22.32
2022-10-03T17:51:37.244Z,22.18
2022-10-03T17:54:10.022Z,22.13
2022-10-03T17:56:38.155Z,22.20
2022-10-03T17:59:08.063Z,22.14
2022-10-03T18:01:40.879Z,22.04
2022-10-03T18:04:15.520Z,21.99
2022-10-03T18:06:48.004Z,21.79
2022-10-03T18:09:27.787Z,21.83
2022-10-03T18:11:59.896Z,21.73
2022-10-03T18:14:33.084Z,21.65
2022-10-03T18:17:05.368Z,21.56
2022-10-03T18:19:40.541Z,21.53
2022-10-03T18:22:13.991Z,21.51
2022-10-03T18:24:46.892Z,21.43
2022-10-03T18:27:42.477Z,21.38
2022-10-03T18:30:16.088Z,21.14
2022-10-03T18:32:45.689Z,21.11
2022-10-03T18:35:15.411Z,21.15
2022-10-03T18:38:00.401Z,21.09
2022-10-03T18:40:29.460Z,20.99
2022-10-03T18:42:57.604Z,20.95
2022-10-03T18:45:29.712Z,20.91
2022-10-03T18:48:01.040Z,20.89
2022-10-03T18:50:30.358Z,20.72
2022-10-03T18:53:01.906Z,20.80
2022-10-03T18:55:31.737Z,20.94
2022-10-03T18:58:02.192Z,21.01
2022-10-03T19:00:31.197Z,21.01
2022-10-03T19:03:02.191Z,20.99
2022-10-03T19:05:31.498Z,21.04
2022-10-03T19:08:04.946Z,21.05
2022-10-03T19:10:39.115Z,21.11
2022-10-03T19:13:16.974Z,21.01
2022-10-03T19:16:13.111Z,21.10
2022-10-03T19:18:44.538Z,21.03
2022-10-03T19:21:18.989Z,21.10
2022-10-03T19:23:48.973Z,21.06
2022-10-03T19:26:22.847Z,21.05
2022-10-03T19:28:51.680Z,21.02
2022-10-03T19:31:21.915Z,20.99
2022-10-03T19:33:52.539Z,20.96
2022-10-03T19:36:22.209Z,20.92
2022-10-03T19:38:50.403Z,20.97
2022-10-03T19:41:26.216Z,20.87
2022-10-03T19:43:55.827Z,20.85
2022-10-03T19:46:49.742Z,20.78
2022-10-03T19:49:26.232Z,20.70
2022-10-03T19:51:55.141Z,20.71
2022-10-03T19:54:31.260Z,20.57
2022-10-03T19:56:59.442Z,20.65
2022-10-03T19:59:38.298Z,20.49
2022-10-03T20:02:06.829Z,20.51
2022-10-03T20:04:37.094Z,20.43
2022-10-03T20:07:07.784Z,20.35
2022-10-03T20:09:36.506Z,20.23
2022-10-03T20:12:05.436Z,20.23
2022-10-03T20:14:35.124Z,20.13
2022-10-03T20:17:05.286Z,20.16
2022-10-03T20:19:47.477Z,20.07
2022-10-03T20:22:15.732Z,19.95
2022-10-03T20:24:45.635Z,20.19
2022-10-03T20:27:22.086Z,20.17
2022-10-03T20:29:52.187Z,20.15
2022-10-03T20:32:21.018Z,20.15
2022-10-03T20:34:53.998Z,20.15
2022-10-03T20:37:40.069Z,20.23
2022-10-03T20:40:16.470Z,20.28
2022-10-03T20:42:46.989Z,20.18
2022-10-03T20:45:16.211Z,20.38
2022-10-03T20:47:49.874Z,20.42
2022-10-03T20:50:23.941Z,20.38
2022-10-03T20:52:54.086Z,20.47
2022-10-03T20:55:23.921Z,20.55
2022-10-03T20:57:58.718Z,20.60
2022-10-03T21:00:27.027Z,20.64
2022-10-03T21:02:57.918Z,20.69
2022-10-03T21:05:29.484Z,20.67
2022-10-03T21:07:58.365Z,20.70
2022-10-03T21:10:29.030Z,20.67
2022-10-03T21:12:58.873Z,20.69
2022-10-03T21:15:34.565Z,20.61
2022-10-03T21:18:02.645Z,20.54
2022-10-03T21:20:37.348Z,20.50
2022-10-03T21:23:08.190Z,20.42
2022-10-03T21:25:36.602Z,20.53
2022-10-03T21:28:04.812Z,20.48
2022-10-03T21:30:45.829Z,20.52
2022-10-03T21:33:17.977Z,20.56
2022-10-03T21:35:47.431Z,20.74
2022-10-03T21:38:20.444Z,20.75
2022-10-03T21:41:00.606Z,20.81
2022-10-03T21:43:36.422Z,20.81
2022-10-03T21:46:08.398Z,20.74
2022-10-03T21:48:39.439Z,20.62
2022-10-03T21:51:14.336Z,20.54
2022-10-03T21:53:45.586Z,20.60
2022-10-03T21:56:28.410Z,20.67
2022-10-03T21:59:13.158Z,20.55
2022-10-03T22:01:43.597Z,20.61
2022-10-03T22:04:16.574Z,20.78
2022-10-03T22:06:49.585Z,20.86
2022-10-03T22:09:17.647Z,20.89
2022-10-03T22:11:49.053Z,20.88
2022-10-03T22:14:22.247Z,20.82
2022-10-03T22:16:53.484Z,20.81
2022-10-03T22:19:24.776Z,20.80
2022-10-03T22:22:03.825Z,20.76
2022-10-03T22:24:38.683Z,20.72
2022-10-03T22:27:09.939Z,20.68
2022-10-03T22:29:41.206Z,20.59
2022-10-03T22:32:11.278Z,20.54
2022-10-03T22:34:42.854Z,20.36
2022-10-03T22:37:12.498Z,20.44
2022-10-03T22:39:40.597Z,20.46
2022-10-03T22:42:08.670Z,20.54
2022-10-03T22:44:38.140Z,20.55
2022-10-03T22:47:08.699Z,20.52
2022-10-03T22:49:38.305Z,20.55
2022-10-03T22:52:06.866Z,20.56
2022-10-03T22:54:37.015Z,20.65
2022-10-03T22:57:06.393Z,20.69
2022-10-03T22:59:36.014Z,20.69
2022-10-03T23:02:06.764Z,20.63
2022-10-03T23:04:36.967Z,20.62
2022-10-03T23:07:23.582Z,20.56
2022-10-03T23:10:00.047Z,20.46
2022-10-03T23:12:28.366Z,20.25
2022-10-03T23:14:56.594Z,20.35
2022-10-03T23:17:43.492Z,20.35
2022-10-03T23:20:15.457Z,20.25
2022-10-03T23:22:46.272Z,20.17
2022-10-03T23:25:18.219Z,20.09
2022-10-03T23:27:51.526Z,20.00
2022-10-03T23:30:55.032Z,19.91
2022-10-03T23:33:49.696Z,19.85
2022-10-03T23:36:19.224Z,19.74
2022-10-03T23:39:03.707Z,19.73
2022-10-03T23:41:45.171Z,19.70
2022-10-03T23:44:32.738Z,19.71
2022-10-03T23:47:01.213Z,19.69
2022-10-03T23:49:29.761Z,19.71
2022-10-03T23:51:58.002Z,19.77
2022-10-03T23:54:26.075Z,19.82
2022-10-03T23:57:00.245Z,19.84
2022-10-03T23:59:28.676Z,19.84
